Time;durP1;ratioP1;P1;durP2;ratioP2;P2;SDS_P1;SDS_P2;PMS_P1;PMS_P2;Temp;Humidity;BMP_temperature;BMP_pressure;BME280_temperature;BME280_humidity;BME280_pressure;Samples;Min_cycle;Max_cycle;Signal;HPM_P1;HPM_P2
2021/04/03 00:01:30;;;;;;;4.60;1.52;;;20.10;34.40;;;;;;5075195;28;20017;-73
2021/04/03 00:03:55;;;;;;;4.78;1.52;;;20.10;34.40;;;;;;5074953;28;20024;-74
2021/04/03 00:06:21;;;;;;;4.13;1.45;;;20.10;34.40;;;;;;5073388;28;20021;-74
2021/04/03 00:08:46;;;;;;;4.85;1.45;;;20.10;34.40;;;;;;5074779;28;20434;-74
2021/04/03 00:11:13;;;;;;;6.03;1.77;;;20.10;34.40;;;;;;5074590;28;20513;-74
2021/04/03 00:13:41;;;;;;;5.97;1.80;;;20.10;34.40;;;;;;5074544;28;20021;-74
2021/04/03 00:16:07;;;;;;;5.88;1.88;;;20.10;34.40;;;;;;5074846;28;20422;-74
2021/04/03 00:18:33;;;;;;;5.78;2.08;;;20.10;34.50;;;;;;5074555;28;20024;-74
2021/04/03 00:20:59;;;;;;;5.45;1.70;;;20.10;34.50;;;;;;5074203;28;20137;-74
2021/04/03 00:23:25;;;;;;;5.47;1.63;;;20.10;34.40;;;;;;5074433;28;20050;-74
2021/04/03 00:25:51;;;;;;;4.82;1.67;;;20.10;34.40;;;;;;5074381;28;20037;-74
2021/04/03 00:28:17;;;;;;;5.95;1.85;;;20.10;34.40;;;;;;5074294;28;20129;-73
2021/04/03 00:30:42;;;;;;;5.75;1.50;;;20.10;34.40;;;;;;5073354;28;20048;-74
2021/04/03 00:33:08;;;;;;;5.70;1.60;;;20.10;34.50;;;;;;5074452;28;20024;-74
2021/04/03 00:35:36;;;;;;;6.53;1.85;;;20.10;34.40;;;;;;5074582;28;20082;-73
2021/04/03 00:38:03;;;;;;;4.80;1.35;;;20.00;34.40;;;;;;5073997;28;20116;-73
2021/04/03 00:40:41;;;;;;;4.75;1.77;;;20.10;34.40;;;;;;5074122;28;20025;-73
2021/04/03 00:43:16;;;;;;;7.07;1.92;;;20.00;34.40;;;;;;5074320;28;20038;-74
2021/04/03 00:45:42;;;;;;;6.38;1.75;;;20.00;34.40;;;;;;5073906;28;20112;-74
2021/04/03 00:48:08;;;;;;;6.00;1.80;;;20.00;34.30;;;;;;5073828;28;20068;-73
2021/04/03 00:50:37;;;;;;;6.82;1.90;;;20.10;34.30;;;;;;5074348;28;20507;-74
2021/04/03 00:53:08;;;;;;;8.82;1.88;;;20.00;34.30;;;;;;5083429;28;20034;-74
2021/04/03 00:55:33;;;;;;;6.50;1.77;;;20.10;34.20;;;;;;5080961;28;20056;-73
2021/04/03 00:58:00;;;;;;;6.15;1.88;;;20.00;34.20;;;;;;5075010;28;20028;-74
2021/04/03 01:00:26;;;;;;;6.18;1.67;;;20.00;34.30;;;;;;5074747;28;20025;-74
2021/04/03 01:02:51;;;;;;;4.80;1.55;;;20.00;34.20;;;;;;5073253;28;20118;-74
2021/04/03 01:05:23;;;;;;;5.28;1.77;;;20.00;34.30;;;;;;5074215;28;20051;-74
2021/04/03 01:07:49;;;;;;;7.68;2.30;;;20.00;34.30;;;;;;5073861;28;20086;-74
2021/04/03 01:10:18;;;;;;;4.72;1.65;;;20.00;34.30;;;;;;5074146;28;20024;-74
2021/04/03 01:13:02;;;;;;;4.68;1.80;;;20.00;34.30;;;;;;5073773;28;20027;-73
2021/04/03 01:16:03;;;;;;;7.25;1.83;;;20.00;34.30;;;;;;5074075;28;20020;-74
2021/04/03 01:18:56;;;;;;;5.50;1.50;;;20.00;34.30;;;;;;5074046;28;20024;-74
2021/04/03 01:22:06;;;;;;;4.47;1.52;;;20.00;34.20;;;;;;5073543;28;20503;-73
2021/04/03 01:24:55;;;;;;;5.43;1.83;;;20.00;34.20;;;;;;5075448;28;20415;-73
2021/04/03 01:27:22;;;;;;;5.75;2.20;;;20.00;34.30;;;;;;5045567;28;20048;-74
2021/04/03 01:30:08;;;;;;;4.90;1.60;;;19.90;34.30;;;;;;5073713;28;20020;-73
2021/04/03 01:33:04;;;;;;;7.40;2.22;;;20.00;34.20;;;;;;5073259;28;20048;-74
2021/04/03 01:35:57;;;;;;;6.05;1.70;;;20.00;34.20;;;;;;5073769;28;20551;-74
2021/04/03 01:38:36;;;;;;;8.02;1.85;;;20.00;34.20;;;;;;5065925;28;20033;-74
2021/04/03 01:41:03;;;;;;;6.03;1.55;;;20.00;34.20;;;;;;5073374;28;20025;-74
2021/04/03 01:43:35;;;;;;;8.10;1.98;;;20.00;34.20;;;;;;5072268;28;20024;-74
2021/04/03 01:46:02;;;;;;;5.60;1.48;;;20.00;34.20;;;;;;5073350;28;20017;-74
2021/04/03 01:48:28;;;;;;;7.03;1.75;;;20.00;34.20;;;;;;5073346;28;20476;-74
2021/04/03 01:50:54;;;;;;;7.40;2.05;;;20.00;34.20;;;;;;5073472;28;20104;-74
2021/04/03 01:53:21;;;;;;;7.28;2.00;;;20.00;34.10;;;;;;5073543;28;20044;-74
2021/04/03 01:55:49;;;;;;;6.78;1.73;;;19.90;34.10;;;;;;5073341;28;20103;-73
2021/04/03 01:58:15;;;;;;;10.45;1.63;;;19.90;34.10;;;;;;5073054;28;20511;-74
2021/04/03 02:00:42;;;;;;;8.63;1.75;;;19.90;34.10;;;;;;5072884;28;20017;-74
2021/04/03 02:03:09;;;;;;;7.55;2.40;;;19.90;34.10;;;;;;5073648;28;20032;-73
2021/04/03 02:05:36;;;;;;;7.20;1.50;;;19.90;34.10;;;;;;5080321;28;20102;-74
2021/04/03 02:08:03;;;;;;;5.85;1.95;;;19.90;34.10;;;;;;5076337;28;20040;-74
2021/04/03 02:10:32;;;;;;;7.03;1.88;;;19.90;34.10;;;;;;5079154;28;20029;-74
2021/04/03 02:13:00;;;;;;;4.50;1.35;;;19.90;34.10;;;;;;5072917;28;20431;-74
2021/04/03 02:15:26;;;;;;;6.25;1.77;;;19.90;34.10;;;;;;5072927;28;20029;-73
2021/04/03 02:17:55;;;;;;;6.18;1.60;;;20.00;34.10;;;;;;5072735;28;20112;-75
2021/04/03 02:20:21;;;;;;;5.53;1.60;;;20.00;34.10;;;;;;5072630;28;20633;-74
2021/04/03 02:22:46;;;;;;;6.35;2.08;;;19.90;34.10;;;;;;5073058;28;20044;-74
2021/04/03 02:25:15;;;;;;;5.15;1.77;;;20.00;34.10;;;;;;5073297;28;20040;-73
2021/04/03 02:27:41;;;;;;;6.43;1.80;;;19.90;34.00;;;;;;5073054;28;20043;-74
2021/04/03 02:30:15;;;;;;;6.82;1.92;;;19.90;34.00;;;;;;5071716;28;20024;-74
2021/04/03 02:32:49;;;;;;;5.78;1.38;;;20.00;34.00;;;;;;5071710;28;20025;-74
2021/04/03 02:35:16;;;;;;;;;;;19.90;34.00;;;;;;5073372;28;20380;-74
2021/04/03 02:37:41;;;;;;;9.27;2.13;;;19.90;34.00;;;;;;5073045;28;20279;-74
2021/04/03 02:40:10;;;;;;;4.95;1.52;;;19.90;34.00;;;;;;5071728;28;20028;-73
2021/04/03 02:42:43;;;;;;;10.02;2.08;;;19.90;34.10;;;;;;5072950;28;20063;-74
2021/04/03 02:45:11;;;;;;;6.25;1.55;;;19.90;34.00;;;;;;5073130;28;20025;-74
2021/04/03 02:47:41;;;;;;;5.15;1.77;;;19.90;34.00;;;;;;5072855;28;20134;-74
2021/04/03 02:50:12;;;;;;;4.10;1.65;;;19.90;34.00;;;;;;5072528;28;20511;-74
2021/04/03 02:52:40;;;;;;;6.43;1.92;;;19.90;34.10;;;;;;5072855;28;20504;-74
2021/04/03 02:55:07;;;;;;;8.90;2.22;;;19.90;34.00;;;;;;5076335;28;20071;-74
2021/04/03 02:57:34;;;;;;;6.60;1.92;;;19.90;34.00;;;;;;5076248;28;20020;-74
2021/04/03 03:00:05;;;;;;;8.45;2.03;;;19.90;34.00;;;;;;5076514;28;20024;-74
2021/04/03 03:02:33;;;;;;;7.53;2.17;;;19.90;34.00;;;;;;5076896;28;20032;-74
2021/04/03 03:04:59;;;;;;;7.43;2.22;;;19.90;34.00;;;;;;5083486;28;20032;-74
2021/04/03 03:07:26;;;;;;;7.05;1.75;;;19.90;34.00;;;;;;5076488;28;20037;-74
2021/04/03 03:09:53;;;;;;;8.05;2.15;;;19.90;34.00;;;;;;5076160;28;20082;-74
2021/04/03 03:12:21;;;;;;;7.40;1.90;;;19.90;34.00;;;;;;5076314;28;20071;-74
2021/04/03 03:14:48;;;;;;;6.75;2.15;;;19.90;34.00;;;;;;5075659;28;20100;-74
2021/04/03 03:17:15;;;;;;;6.03;1.73;;;19.90;34.00;;;;;;5076134;28;20079;-74
2021/04/03 03:19:41;;;;;;;5.38;1.67;;;19.90;33.90;;;;;;5075694;28;20031;-72
2021/04/03 03:22:08;;;;;;;6.05;1.95;;;19.90;34.00;;;;;;5075733;28;20416;-74
2021/04/03 03:24:34;;;;;;;8.30;2.10;;;19.90;34.00;;;;;;5075964;28;20029;-74
2021/04/03 03:27:01;;;;;;;7.43;1.83;;;19.90;33.90;;;;;;5075733;28;20082;-74
2021/04/03 03:29:28;;;;;;;7.70;2.45;;;19.90;34.00;;;;;;5076095;28;20033;-74
2021/04/03 03:31:54;;;;;;;5.22;2.10;;;19.90;33.90;;;;;;5075505;28;20019;-74
2021/04/03 03:34:20;;;;;;;6.25;2.05;;;19.90;33.90;;;;;;5075290;28;20077;-74
2021/04/03 03:36:46;;;;;;;6.72;2.10;;;19.90;34.00;;;;;;5075359;28;20024;-73
2021/04/03 03:39:12;;;;;;;9.38;2.15;;;19.90;33.90;;;;;;5075574;28;20098;-74
2021/04/03 03:41:39;;;;;;;4.53;1.60;;;19.90;34.00;;;;;;5074074;28;20109;-73
2021/04/03 03:44:06;;;;;;;6.90;2.20;;;19.80;34.00;;;;;;5075133;28;20056;-73
2021/04/03 03:46:32;;;;;;;6.90;1.85;;;19.90;34.00;;;;;;5074893;28;20134;-74
2021/04/03 03:48:58;;;;;;;7.55;1.75;;;19.90;34.00;;;;;;5074947;28;20047;-74
2021/04/03 03:51:24;;;;;;;8.70;2.35;;;19.90;33.90;;;;;;5075360;28;20068;-73
2021/04/03 03:53:49;;;;;;;6.93;1.70;;;19.90;33.90;;;;;;5075369;28;20029;-74
2021/04/03 03:56:18;;;;;;;6.55;1.80;;;19.90;33.90;;;;;;5075496;28;20028;-73
2021/04/03 03:58:44;;;;;;;7.13;1.80;;;19.90;33.90;;;;;;5075468;28;20413;-75
2021/04/03 04:01:10;;;;;;;7.72;2.22;;;19.90;33.90;;;;;;5077477;28;20012;-74
2021/04/03 04:03:36;;;;;;;6.63;1.70;;;19.90;33.90;;;;;;5077222;28;20035;-74
2021/04/03 04:06:05;;;;;;;5.60;2.17;;;19.90;34.00;;;;;;5075495;28;20063;-74
2021/04/03 04:08:32;;;;;;;6.25;1.80;;;19.90;33.90;;;;;;5075611;28;20036;-74
2021/04/03 04:10:57;;;;;;;5.05;2.10;;;19.90;34.00;;;;;;5075722;28;20027;-74
2021/04/03 04:13:23;;;;;;;11.43;2.20;;;19.90;33.90;;;;;;5077461;28;20028;-74
2021/04/03 04:15:48;;;;;;;8.88;2.08;;;19.90;33.90;;;;;;5074987;28;20024;-73
2021/04/03 04:18:15;;;;;;;9.93;2.33;;;19.90;33.80;;;;;;5074932;28;20104;-73
2021/04/03 04:20:41;;;;;;;7.07;2.17;;;19.90;33.90;;;;;;5074444;28;20057;-74
2021/04/03 04:23:06;;;;;;;7.78;1.90;;;19.90;33.80;;;;;;5074684;28;20078;-73
2021/04/03 04:25:32;;;;;;;7.60;2.08;;;20.00;33.80;;;;;;5074508;28;20497;-73
2021/04/03 04:27:57;;;;;;;7.65;2.22;;;20.00;33.80;;;;;;5074447;28;20404;-74
2021/04/03 04:30:23;;;;;;;7.82;1.90;;;20.00;33.80;;;;;;5074933;28;20144;-73
2021/04/03 04:32:49;;;;;;;4.90;1.50;;;20.00;33.80;;;;;;5075444;28;20027;-74
2021/04/03 04:35:15;;;;;;;6.68;2.00;;;20.00;33.80;;;;;;5080478;28;20021;-73
2021/04/03 04:37:42;;;;;;;11.10;2.17;;;20.00;33.80;;;;;;5074890;28;20040;-73
2021/04/03 04:40:10;;;;;;;8.05;2.30;;;20.00;33.80;;;;;;5081161;28;20036;-73
2021/04/03 04:42:38;;;;;;;6.32;1.77;;;20.10;33.80;;;;;;5075905;28;20103;-73
2021/04/03 04:45:04;;;;;;;7.15;1.77;;;20.10;33.80;;;;;;5072888;28;20020;-73
2021/04/03 04:47:30;;;;;;;7.82;2.22;;;20.10;33.80;;;;;;5074003;28;20056;-73
2021/04/03 04:49:55;;;;;;;7.30;1.98;;;20.10;33.70;;;;;;5074404;28;20048;-73
2021/04/03 04:52:21;;;;;;;7.53;1.98;;;20.10;33.70;;;;;;5073819;28;20448;-74
2021/04/03 04:54:46;;;;;;;7.22;1.83;;;20.10;33.70;;;;;;5072838;28;20488;-73
2021/04/03 04:57:12;;;;;;;9.88;2.30;;;20.10;33.70;;;;;;5074227;28;20107;-73
2021/04/03 04:59:38;;;;;;;8.55;2.20;;;20.10;33.70;;;;;;5074561;28;20098;-73
2021/04/03 05:02:04;;;;;;;5.05;1.73;;;20.10;33.70;;;;;;5074326;28;20093;-73
2021/04/03 05:04:30;;;;;;;7.10;2.10;;;20.10;33.70;;;;;;5073751;28;20464;-73
2021/04/03 05:06:55;;;;;;;7.32;2.00;;;20.20;33.70;;;;;;5073797;28;20383;-73
2021/04/03 05:09:21;;;;;;;7.80;1.88;;;20.10;33.70;;;;;;5073809;28;20028;-73
2021/04/03 05:11:46;;;;;;;5.47;1.83;;;20.10;33.70;;;;;;5073416;28;20025;-73
2021/04/03 05:14:12;;;;;;;7.88;1.98;;;20.20;33.70;;;;;;5073939;28;20036;-73
2021/04/03 05:16:38;;;;;;;7.78;1.65;;;20.20;33.70;;;;;;5072999;28;20464;-73
2021/04/03 05:19:03;;;;;;;6.50;1.73;;;20.20;33.70;;;;;;5073642;28;20107;-73
2021/04/03 05:21:29;;;;;;;6.20;2.00;;;20.20;33.70;;;;;;5073464;28;20032;-73
2021/04/03 05:23:54;;;;;;;6.45;2.15;;;20.20;33.70;;;;;;5073819;28;20024;-72
2021/04/03 05:26:20;;;;;;;7.95;2.15;;;20.20;33.70;;;;;;5074095;28;20025;-73
2021/04/03 05:28:45;;;;;;;6.47;1.75;;;20.20;33.70;;;;;;5073458;28;20476;-73
2021/04/03 05:31:11;;;;;;;7.00;2.10;;;20.20;33.70;;;;;;5073495;28;20075;-73
2021/04/03 05:33:37;;;;;;;5.50;1.67;;;20.20;33.70;;;;;;5073663;28;20021;-73
2021/04/03 05:36:03;;;;;;;7.68;1.77;;;20.20;33.70;;;;;;5073683;28;20479;-73
2021/04/03 05:38:28;;;;;;;5.00;1.60;;;20.20;33.70;;;;;;5073854;28;20024;-72
2021/04/03 05:40:54;;;;;;;8.23;1.85;;;20.20;33.70;;;;;;5073795;28;20025;-73
2021/04/03 05:43:20;;;;;;;6.40;2.03;;;20.20;33.70;;;;;;5073472;28;20468;-73
2021/04/03 05:45:49;;;;;;;9.20;2.00;;;20.30;33.70;;;;;;5073324;28;20017;-73
2021/04/03 05:48:14;;;;;;;6.45;2.15;;;20.20;33.60;;;;;;5072993;28;20036;-73
2021/04/03 05:50:41;;;;;;;6.72;2.22;;;20.20;33.60;;;;;;5073170;28;20028;-74
2021/04/03 05:53:07;;;;;;;6.85;2.20;;;20.20;33.70;;;;;;5072086;28;20480;-73
2021/04/03 05:55:33;;;;;;;7.63;2.08;;;20.20;33.60;;;;;;5073271;28;20067;-73
2021/04/03 05:57:58;;;;;;;8.02;2.35;;;20.30;33.60;;;;;;5073095;28;20082;-73
2021/04/03 06:00:24;;;;;;;7.18;2.05;;;20.30;33.70;;;;;;5073233;28;20021;-74
2021/04/03 06:02:51;;;;;;;8.25;2.03;;;20.30;33.60;;;;;;5073083;28;20464;-74
2021/04/03 06:05:17;;;;;;;8.07;1.92;;;20.30;33.60;;;;;;5073191;28;20483;-74
2021/04/03 06:07:42;;;;;;;8.40;2.13;;;20.30;33.60;;;;;;5072689;28;20025;-73
2021/04/03 06:10:10;;;;;;;6.05;2.15;;;20.30;33.60;;;;;;5073144;28;20028;-74
2021/04/03 06:12:47;;;;;;;9.20;2.25;;;20.30;33.60;;;;;;5073231;28;20031;-73
2021/04/03 06:15:24;;;;;;;7.10;1.88;;;20.30;33.60;;;;;;5072730;28;20388;-73
2021/04/03 06:17:57;;;;;;;5.55;1.98;;;20.30;33.60;;;;;;5072885;28;20027;-74
2021/04/03 06:20:36;;;;;;;7.35;1.80;;;20.30;33.60;;;;;;5072805;28;20041;-73
2021/04/03 06:23:04;;;;;;;7.50;1.90;;;20.30;33.70;;;;;;5073035;28;20496;-73
2021/04/03 06:25:29;;;;;;;6.32;1.95;;;20.30;33.60;;;;;;5073289;28;20032;-73
2021/04/03 06:28:08;;;;;;;7.50;1.98;;;20.30;33.70;;;;;;5075093;28;20033;-74
2021/04/03 06:30:36;;;;;;;8.13;2.05;;;20.40;33.60;;;;;;5081070;28;20024;-72
2021/04/03 06:33:20;;;;;;;9.55;2.35;;;20.30;33.60;;;;;;5079754;28;20048;-73
2021/04/03 06:36:05;;;;;;;7.68;1.90;;;20.30;33.60;;;;;;5076578;28;20527;-73
2021/04/03 06:38:31;;;;;;;6.70;2.08;;;20.40;33.60;;;;;;5076666;28;20046;-74
2021/04/03 06:41:21;;;;;;;7.38;2.33;;;20.30;33.60;;;;;;5076611;28;20028;-73
2021/04/03 06:44:07;;;;;;;7.28;1.80;;;20.40;33.60;;;;;;5076857;28;20459;-74
2021/04/03 06:46:34;;;;;;;7.65;2.28;;;20.30;33.60;;;;;;5076367;28;20055;-73
2021/04/03 06:49:00;;;;;;;9.30;2.17;;;20.30;33.60;;;;;;5075184;28;20409;-74
2021/04/03 06:51:27;;;;;;;5.75;2.10;;;20.40;33.60;;;;;;5076351;28;20099;-74
2021/04/03 06:53:56;;;;;;;7.95;1.88;;;20.40;33.50;;;;;;5076936;28;20040;-73
2021/04/03 06:56:23;;;;;;;8.63;2.08;;;20.40;33.60;;;;;;5076087;28;20032;-74
2021/04/03 06:58:56;;;;;;;8.40;1.75;;;20.40;33.50;;;;;;5076484;28;20024;-73
2021/04/03 07:01:30;;;;;;;9.05;2.00;;;20.40;33.50;;;;;;5076177;28;20055;-73
2021/04/03 07:04:02;;;;;;;5.88;1.85;;;20.40;33.60;;;;;;5076162;28;20024;-73
2021/04/03 07:06:30;;;;;;;7.35;2.00;;;20.40;33.60;;;;;;5076538;28;20226;-73
2021/04/03 07:08:57;;;;;;;7.55;2.03;;;20.40;33.60;;;;;;5076003;28;20033;-74
2021/04/03 07:11:24;;;;;;;6.65;1.83;;;20.40;33.50;;;;;;5075799;28;20028;-74
2021/04/03 07:13:52;;;;;;;8.60;2.03;;;20.40;33.50;;;;;;5075806;28;20078;-74
2021/04/03 07:16:21;;;;;;;8.48;2.10;;;20.40;33.50;;;;;;5076053;28;20016;-73
2021/04/03 07:18:48;;;;;;;8.20;1.83;;;20.40;33.50;;;;;;5075888;28;20511;-74
2021/04/03 07:21:13;;;;;;;5.47;1.48;;;20.40;33.50;;;;;;5075799;28;20054;-74
2021/04/03 07:23:40;;;;;;;5.80;2.25;;;20.40;33.50;;;;;;5076182;28;20048;-74
2021/04/03 07:26:09;;;;;;;8.07;2.17;;;20.40;33.40;;;;;;5081127;28;20028;-74
2021/04/03 07:28:40;;;;;;;6.78;1.77;;;20.40;33.40;;;;;;5076144;28;20115;-74
2021/04/03 07:31:06;;;;;;;7.78;1.92;;;20.40;33.50;;;;;;5075533;28;20380;-74
2021/04/03 07:33:32;;;;;;;8.13;2.15;;;20.40;33.50;;;;;;5075495;28;20032;-74
2021/04/03 07:36:02;;;;;;;7.28;2.05;;;20.40;33.40;;;;;;5075604;28;20115;-73
2021/04/03 07:38:39;;;;;;;9.82;2.30;;;20.50;33.40;;;;;;5074792;28;20042;-74
2021/04/03 07:41:10;;;;;;;8.98;1.85;;;20.40;33.40;;;;;;5075561;28;20446;-73
2021/04/03 07:43:40;;;;;;;7.80;2.17;;;20.40;33.40;;;;;;5079223;28;20028;-73
2021/04/03 07:46:34;;;;;;;8.48;2.67;;;20.40;33.40;;;;;;5077655;28;20487;-73
2021/04/03 07:49:00;;;;;;;7.80;2.05;;;20.40;33.40;;;;;;5074995;28;20040;-73
2021/04/03 07:51:28;;;;;;;6.05;1.92;;;20.40;33.30;;;;;;5075324;28;20468;-74
2021/04/03 07:53:56;;;;;;;8.07;2.38;;;20.50;33.40;;;;;;5073934;28;20028;-72
2021/04/03 07:56:27;;;;;;;5.32;1.88;;;20.40;33.40;;;;;;5075060;28;20020;-73
2021/04/03 07:58:58;;;;;;;6.68;2.00;;;20.40;33.40;;;;;;5075199;28;20021;-74
2021/04/03 08:01:25;;;;;;;5.30;1.73;;;20.40;33.40;;;;;;5075382;28;20038;-73
2021/04/03 08:03:55;;;;;;;9.07;2.30;;;20.50;33.40;;;;;;5075128;28;20024;-73
2021/04/03 08:06:28;;;;;;;9.18;2.75;;;20.40;33.30;;;;;;5075078;28;20040;-73
2021/04/03 08:08:54;;;;;;;7.50;1.90;;;20.40;33.40;;;;;;5075220;28;20115;-74
2021/04/03 08:11:19;;;;;;;7.40;2.13;;;20.40;33.40;;;;;;5075039;28;20059;-74
2021/04/03 08:13:47;;;;;;;7.82;2.33;;;20.40;33.30;;;;;;5073430;28;20032;-73
2021/04/03 08:16:14;;;;;;;9.35;2.35;;;20.40;33.40;;;;;;5074966;28;20402;-73
2021/04/03 08:18:46;;;;;;;7.45;2.05;;;20.50;33.40;;;;;;5074744;28;20028;-73
2021/04/03 08:21:12;;;;;;;7.05;2.33;;;20.40;33.40;;;;;;5074535;28;20040;-73
2021/04/03 08:23:50;;;;;;;6.93;2.08;;;20.40;33.40;;;;;;5074754;28;20032;-74
2021/04/03 08:26:20;;;;;;;9.93;2.08;;;20.40;33.40;;;;;;5074557;28;20031;-73
2021/04/03 08:28:47;;;;;;;5.82;1.52;;;20.40;33.40;;;;;;5074584;28;20036;-73
2021/04/03 08:31:15;;;;;;;7.57;2.72;;;20.40;33.40;;;;;;5074656;28;20025;-74
2021/04/03 08:33:42;;;;;;;9.93;3.83;;;20.40;33.40;;;;;;5074367;28;20503;-74
2021/04/03 08:36:12;;;;;;;8.27;2.42;;;20.40;33.40;;;;;;5074425;28;20021;-74
2021/04/03 08:38:38;;;;;;;8.00;2.55;;;20.40;33.40;;;;;;5074288;28;20028;-74
2021/04/03 08:41:04;;;;;;;7.20;2.00;;;20.40;33.40;;;;;;5074160;28;20035;-73
2021/04/03 08:43:31;;;;;;;9.30;2.53;;;20.40;33.40;;;;;;5074696;28;20024;-75
2021/04/03 08:46:08;;;;;;;7.18;2.35;;;20.50;33.40;;;;;;5073689;28;20032;-74
2021/04/03 08:48:35;;;;;;;7.28;2.40;;;20.50;33.40;;;;;;5074094;28;20373;-73
2021/04/03 08:51:01;;;;;;;10.07;2.50;;;20.40;33.40;;;;;;5073064;28;20013;-73
2021/04/03 08:53:40;;;;;;;8.05;2.08;;;20.50;33.40;;;;;;5074140;28;20510;-73
2021/04/03 08:56:06;;;;;;;7.53;2.13;;;20.40;33.40;;;;;;5074012;28;20082;-73
2021/04/03 08:58:32;;;;;;;7.80;2.67;;;20.50;33.40;;;;;;5073598;28;20310;-73
2021/04/03 09:00:58;;;;;;;8.82;1.98;;;20.50;33.40;;;;;;5073743;28;20036;-73
2021/04/03 09:03:25;;;;;;;9.80;3.03;;;20.50;33.40;;;;;;5074218;28;20075;-74
2021/04/03 09:05:51;;;;;;;6.93;1.95;;;20.40;33.40;;;;;;5076207;28;20115;-74
2021/04/03 09:08:21;;;;;;;7.85;2.28;;;20.50;33.30;;;;;;5073327;28;20036;-74
2021/04/03 09:11:00;;;;;;;10.23;2.78;;;20.50;33.30;;;;;;5074052;28;20021;-75
2021/04/03 09:13:33;;;;;;;8.70;2.70;;;20.50;33.30;;;;;;5073596;28;20543;-74
2021/04/03 09:16:13;;;;;;;8.47;2.23;;;20.50;33.30;;;;;;5073730;28;20476;-74
2021/04/03 09:18:40;;;;;;;8.75;2.70;;;20.50;33.40;;;;;;5073436;28;20398;-74
2021/04/03 09:21:06;;;;;;;7.82;2.13;;;20.50;33.40;;;;;;5073040;28;20520;-74
2021/04/03 09:23:39;;;;;;;8.40;2.50;;;20.50;33.40;;;;;;5073205;28;20028;-74
2021/04/03 09:26:05;;;;;;;8.35;2.22;;;20.50;33.40;;;;;;5073719;28;20021;-74
2021/04/03 09:28:39;;;;;;;6.78;2.38;;;20.50;33.40;;;;;;5073336;28;20094;-74
2021/04/03 09:31:08;;;;;;;8.52;2.38;;;20.50;33.30;;;;;;5073408;28;20023;-74
2021/04/03 09:33:47;;;;;;;9.60;1.80;;;20.50;33.30;;;;;;5073310;28;20035;-74
2021/04/03 09:36:15;;;;;;;8.20;2.00;;;20.50;33.40;;;;;;5073417;28;20021;-74
2021/04/03 09:38:41;;;;;;;9.05;2.20;;;20.50;33.30;;;;;;5072668;28;20027;-74
2021/04/03 09:41:24;;;;;;;10.35;2.25;;;20.50;33.40;;;;;;5072685;28;20029;-74
2021/04/03 09:43:50;;;;;;;8.18;2.03;;;20.50;33.40;;;;;;5054726;28;20024;-74
2021/04/03 09:46:16;;;;;;;8.63;2.60;;;20.50;33.30;;;;;;5071370;28;20028;-74
2021/04/03 09:48:42;;;;;;;10.63;2.33;;;20.50;33.40;;;;;;5072567;28;20029;-74
2021/04/03 09:51:09;;;;;;;10.65;2.42;;;20.50;33.40;;;;;;5072430;28;20469;-75
2021/04/03 09:53:35;;;;;;;9.38;2.60;;;20.50;33.40;;;;;;5072660;28;20561;-75
2021/04/03 09:56:01;;;;;;;8.43;2.40;;;20.50;33.40;;;;;;5071138;28;20147;-72
2021/04/03 09:58:26;;;;;;;7.10;2.03;;;20.50;33.40;;;;;;5072572;28;20031;-74
2021/04/03 10:00:52;;;;;;;8.55;2.22;;;20.50;33.30;;;;;;5071070;28;20020;-74
2021/04/03 10:03:18;;;;;;;13.88;2.35;;;20.50;33.30;;;;;;5075479;28;20032;-74
2021/04/03 10:05:44;;;;;;;9.00;2.28;;;20.60;33.30;;;;;;5077272;28;20027;-74
2021/04/03 10:08:09;;;;;;;8.75;2.83;;;20.50;33.40;;;;;;5076943;28;20043;-75
2021/04/03 10:10:35;;;;;;;6.35;2.17;;;20.60;33.30;;;;;;5075901;28;20020;-71
2021/04/03 10:13:01;;;;;;;8.70;2.25;;;20.70;33.20;;;;;;5077093;28;20472;-74
2021/04/03 10:15:26;;;;;;;9.90;2.58;;;20.60;33.30;;;;;;5075763;28;20032;-73
2021/04/03 10:17:52;;;;;;;8.88;2.45;;;20.60;33.30;;;;;;5077344;28;20020;-73
2021/04/03 10:20:18;;;;;;;7.38;1.88;;;20.60;33.30;;;;;;5077258;28;20035;-73
2021/04/03 10:22:44;;;;;;;9.02;2.72;;;20.60;33.30;;;;;;5077168;28;20026;-74
2021/04/03 10:25:11;;;;;;;11.45;2.63;;;20.50;33.40;;;;;;5077290;28;20032;-71
2021/04/03 10:27:37;;;;;;;8.57;2.60;;;20.60;33.30;;;;;;5076954;28;20028;-73
2021/04/03 10:30:04;;;;;;;10.75;2.47;;;20.60;33.40;;;;;;5080571;28;20024;-73
2021/04/03 10:32:30;;;;;;;11.80;2.92;;;20.70;33.30;;;;;;5083789;28;20035;-73
2021/04/03 10:34:56;;;;;;;10.32;2.53;;;20.70;33.20;;;;;;5076677;28;20028;-74
2021/04/03 10:37:22;;;;;;;8.38;2.13;;;20.70;33.30;;;;;;5076655;28;20025;-73
2021/04/03 10:39:47;;;;;;;9.82;2.33;;;20.60;33.40;;;;;;5076510;28;20013;-74
2021/04/03 10:42:13;;;;;;;9.00;2.72;;;20.70;33.40;;;;;;5076355;28;20023;-73
2021/04/03 10:44:39;;;;;;;6.35;2.20;;;20.70;33.30;;;;;;5076505;28;20032;-74
2021/04/03 10:47:05;;;;;;;6.35;2.00;;;20.70;33.30;;;;;;5076111;28;20052;-74
2021/04/03 10:49:31;;;;;;;10.95;3.13;;;20.80;33.30;;;;;;5076607;28;20025;-74
2021/04/03 10:51:56;;;;;;;7.70;2.13;;;20.80;33.20;;;;;;5076284;28;20465;-75
2021/04/03 10:54:23;;;;;;;8.95;2.05;;;20.90;33.20;;;;;;5078386;28;20040;-72
2021/04/03 10:56:48;;;;;;;7.47;2.17;;;20.80;33.10;;;;;;5085551;28;20601;-74
2021/04/03 10:59:14;;;;;;;7.18;1.90;;;20.90;33.10;;;;;;5083837;28;20025;-74
2021/04/03 11:01:40;;;;;;;7.72;1.88;;;20.90;33.10;;;;;;5079947;28;20032;-74
2021/04/03 11:04:06;;;;;;;7.03;1.90;;;20.90;33.10;;;;;;5082829;28;20047;-74
2021/04/03 11:06:31;;;;;;;9.45;2.10;;;20.90;33.10;;;;;;5077857;28;20506;-74
2021/04/03 11:08:57;;;;;;;7.20;2.25;;;20.90;33.00;;;;;;5076938;28;20039;-73
2021/04/03 11:11:22;;;;;;;11.05;2.53;;;21.00;33.00;;;;;;5076467;28;20040;-74
2021/04/03 11:13:48;;;;;;;8.43;2.88;;;21.00;33.00;;;;;;5075022;28;20429;-72
2021/04/03 11:16:13;;;;;;;7.75;2.00;;;21.00;32.90;;;;;;5076066;28;20503;-73
2021/04/03 11:18:39;;;;;;;7.93;2.20;;;21.00;32.90;;;;;;5076047;28;20047;-73
2021/04/03 11:21:05;;;;;;;9.73;2.55;;;21.00;32.90;;;;;;5075663;28;20174;-74
2021/04/03 11:23:30;;;;;;;6.75;2.30;;;21.00;33.00;;;;;;5075858;28;20033;-72
2021/04/03 11:25:56;;;;;;;5.65;2.28;;;20.90;33.10;;;;;;5076212;28;20032;-74
2021/04/03 11:28:22;;;;;;;9.00;2.38;;;20.90;33.20;;;;;;5075685;28;20048;-73
2021/04/03 11:30:47;;;;;;;7.55;2.08;;;21.00;33.00;;;;;;5074131;28;20024;-73
2021/04/03 11:33:13;;;;;;;8.27;2.47;;;21.00;32.90;;;;;;5075669;28;20025;-73
2021/04/03 11:35:38;;;;;;;7.97;2.13;;;21.00;32.90;;;;;;5075655;28;20020;-73
2021/04/03 11:38:04;;;;;;;7.43;2.08;;;21.00;33.10;;;;;;5075687;28;20352;-73
2021/04/03 11:40:30;;;;;;;6.97;2.20;;;21.00;32.90;;;;;;5076735;28;20024;-73
2021/04/03 11:42:56;;;;;;;7.65;2.47;;;21.10;32.90;;;;;;5075688;28;20078;-73
2021/04/03 11:45:23;;;;;;;7.32;2.42;;;21.00;33.00;;;;;;5076062;28;20031;-72
2021/04/03 11:47:52;;;;;;;8.55;2.35;;;21.10;33.00;;;;;;5078763;28;20115;-73
2021/04/03 11:50:18;;;;;;;8.80;2.20;;;21.00;33.00;;;;;;5075712;28;20116;-73
2021/04/03 11:52:44;;;;;;;8.45;2.30;;;21.00;33.10;;;;;;5075260;28;20044;-73
2021/04/03 11:55:13;;;;;;;6.93;2.47;;;21.00;33.10;;;;;;5075239;28;20098;-73
2021/04/03 11:57:39;;;;;;;7.32;2.40;;;21.10;32.90;;;;;;5074957;28;20046;-72
2021/04/03 12:00:06;;;;;;;9.40;2.55;;;21.10;32.80;;;;;;5074833;28;20052;-74
2021/04/03 12:02:32;;;;;;;8.00;2.20;;;21.20;32.80;;;;;;5074736;28;20047;-74
2021/04/03 12:04:58;;;;;;;7.65;2.10;;;21.20;32.80;;;;;;5074667;28;20024;-74
2021/04/03 12:07:25;;;;;;;10.63;2.35;;;21.20;32.80;;;;;;5074766;28;20028;-74
2021/04/03 12:09:50;;;;;;;8.05;2.28;;;21.10;32.90;;;;;;5074708;28;20047;-74
2021/04/03 12:12:16;;;;;;;5.78;2.13;;;21.10;32.90;;;;;;5074779;28;20464;-73
2021/04/03 12:14:41;;;;;;;5.75;2.03;;;21.00;33.00;;;;;;5074656;28;20032;-73
2021/04/03 12:17:07;;;;;;;7.60;2.30;;;21.00;33.00;;;;;;5074463;28;20055;-74
2021/04/03 12:19:32;;;;;;;9.07;2.45;;;21.10;32.90;;;;;;5074138;28;20016;-74
2021/04/03 12:21:58;;;;;;;8.07;2.25;;;21.10;32.90;;;;;;5074059;28;20052;-74
2021/04/03 12:24:24;;;;;;;9.27;2.63;;;21.20;32.90;;;;;;5074495;28;20119;-75
2021/04/03 12:26:49;;;;;;;9.00;2.63;;;21.30;32.80;;;;;;5074337;28;20059;-73
2021/04/03 12:29:15;;;;;;;10.73;2.72;;;21.40;32.70;;;;;;5074060;28;20111;-73
2021/04/03 12:31:41;;;;;;;8.63;3.17;;;21.30;32.70;;;;;;5072915;28;20468;-73
2021/04/03 12:34:07;;;;;;;9.13;2.30;;;21.30;32.80;;;;;;5074010;28;20413;-73
2021/04/03 12:36:32;;;;;;;5.40;2.03;;;21.30;32.80;;;;;;5074157;28;20145;-73
2021/04/03 12:38:58;;;;;;;8.07;2.25;;;21.20;32.80;;;;;;5073743;28;20025;-73
2021/04/03 12:41:24;;;;;;;6.82;2.30;;;21.10;32.90;;;;;;5073756;28;20016;-72
2021/04/03 12:43:49;;;;;;;7.30;2.00;;;21.10;33.00;;;;;;5072477;28;20039;-74
2021/04/03 12:46:15;;;;;;;6.97;2.35;;;21.10;33.00;;;;;;5074109;28;20048;-73
2021/04/03 12:48:40;;;;;;;8.38;2.13;;;21.10;33.00;;;;;;5073990;28;20518;-73
2021/04/03 12:51:07;;;;;;;5.75;1.95;;;21.20;32.90;;;;;;5073994;28;20068;-73